Sharm El Sheikh, Egypt

10:48 AM EET on July 25, 2016 (GMT +0200)
Sharm El Sheikh International | | Change Station

Elev 164 ft 27.98 °N, 34.39 °E | Updated 48 minutes ago

Clear
Clear
91 °F
Feels Like 93 °F
N
20
Wind Variable Wind from NNE

Today
High -- | Low -- °F
--% Chance of Precip.
Yesterday
High -- | Low -- °F
Precip. -- in
Pressure 29.62 in
Visibility -9999.0 miles
Clouds
Heat Index 93 °F
Dew Point 64 °F
Humidity 41%
Rainfall 0.00 in
Snow Depth Not available.
5:01 AM 6:36 PM
Waning Gibbous, 68% visible
METAR HESH 250800Z 02017KT CAVOK 33/18 Q1003 NOSIG
Pressure 29.62 in
Visibility -9999.0 miles
Clouds
Heat Index 93 °F
Dew Point 64 °F
Humidity 41%
Rainfall 0.00 in
Snow Depth Not available.
5:01 AM 6:36 PM
Waning Gibbous, 68% visible
METAR HESH 250800Z 02017KT CAVOK 33/18 Q1003 NOSIG

10-Day Weather Forecast

No radar image for this location.
×

Almanac

Astronomy

Jul. 25, 2016 Rise Set
Actual Time
Civil Twilight
Nautical Twilight
Astronomical Twilight
Moon
Length of Visible Light
Length of Day
Tomorrow will be .
, % of the Moon is Illuminated

Today's Extremes

Country Highs Country Lows

Community

WunderPhotos

Upload Photos

1,927,274 photos uploaded!

WunderBlog® & News

Nearby

Air Quality

  Air Quality AQ Index Pollutant
Not available.

Snow Depth

Station Depth Elevation

Earthquake Activity

City Distance Mag. Time & Date
Minimum magnitude displayed is 2.5.

Coastal Water Temperatures

Place Temperature

Stations

Nearby Weather Stations

Station Location Temp. Windchill Dew Point Humidity Wind Precip. Elev Updated Type